createdAt,value
2022-08-09T00:00:11.402Z,99730.34
2022-08-09T00:02:49.112Z,99723.31
2022-08-09T00:06:16.231Z,99720.63
2022-08-09T00:08:10.179Z,99718.06
2022-08-09T00:10:39.289Z,99724.91
2022-08-09T00:13:16.821Z,99718.91
2022-08-09T00:15:59.065Z,99719.19
2022-08-09T00:18:28.968Z,99711.41
2022-08-09T00:20:55.566Z,99707.50
2022-08-09T00:23:55.684Z,99698.84
2022-08-09T00:26:10.890Z,99695.72
2022-08-09T00:28:39.534Z,99699.94
2022-08-09T00:31:09.210Z,99696.88
2022-08-09T00:33:54.947Z,99699.38
2022-08-09T00:36:29.561Z,99705.69
2022-08-09T00:38:57.772Z,99704.16
2022-08-09T00:44:10.467Z,99695.06
2022-08-09T00:44:26.029Z,99688.28
2022-08-09T00:46:56.854Z,99676.94
2022-08-09T00:49:28.543Z,99679.88
2022-08-09T00:51:57.971Z,99678.47
2022-08-09T00:54:31.278Z,99674.84
2022-08-09T00:57:01.826Z,99677.91
2022-08-09T00:59:40.650Z,99673.88
2022-08-09T01:02:09.403Z,99672.59
2022-08-09T01:04:52.498Z,99670.63
2022-08-09T01:07:38.030Z,99675.41
2022-08-09T01:10:29.652Z,99651.66
2022-08-09T01:13:16.897Z,99658.09
2022-08-09T01:15:52.126Z,99653.09
2022-08-09T01:18:30.339Z,99654.63
2022-08-09T01:21:09.886Z,99654.38
2022-08-09T01:24:00.712Z,99646.13
2022-08-09T01:26:54.943Z,99637.84
2022-08-09T01:29:29.479Z,99645.41
2022-08-09T01:32:37.731Z,99636.31
2022-08-09T01:35:29.007Z,99633.69
2022-08-09T01:38:10.614Z,99637.47
2022-08-09T01:40:52.868Z,99631.34
2022-08-09T01:43:50.453Z,99626.56
2022-08-09T01:46:37.672Z,99627.69
2022-08-09T01:49:14.779Z,99639.44
2022-08-09T01:51:53.709Z,99631.91
2022-08-09T01:54:23.042Z,99622.13
2022-08-09T01:56:52.704Z,99633.00
2022-08-09T01:59:22.990Z,99632.47
2022-08-09T02:01:59.719Z,99635.81
2022-08-09T02:04:30.027Z,99627.75
2022-08-09T02:07:18.557Z,99609.53
2022-08-09T02:10:10.623Z,99606.47
2022-08-09T02:12:39.315Z,99604.06
2022-08-09T02:15:08.227Z,99609.00
2022-08-09T02:18:01.653Z,99608.16
2022-08-09T02:20:33.928Z,99603.81
2022-08-09T02:23:17.069Z,99602.66
2022-08-09T02:25:52.583Z,99597.81
2022-08-09T02:28:28.365Z,99589.28
2022-08-09T02:31:01.511Z,99594.44
2022-08-09T02:33:58.117Z,99591.06
2022-08-09T02:36:31.994Z,99596.69
2022-08-09T02:39:02.721Z,99593.19
2022-08-09T02:41:43.550Z,99594.19
2022-08-09T02:44:29.266Z,99601.44
2022-08-09T02:46:58.782Z,99597.97
2022-08-09T02:49:40.990Z,99592.75
2022-08-09T02:52:16.199Z,99595.97
2022-08-09T02:54:54.052Z,99589.13
2022-08-09T02:57:23.525Z,99587.44
2022-08-09T03:00:21.441Z,99580.47
2022-08-09T03:02:58.533Z,99572.78
2022-08-09T03:05:28.378Z,99575.44
2022-08-09T03:07:56.652Z,99584.91
2022-08-09T03:10:26.470Z,99598.78
2022-08-09T03:12:54.527Z,99601.59
2022-08-09T03:15:23.202Z,99604.50
2022-08-09T03:17:58.030Z,99585.63
2022-08-09T03:20:29.646Z,99581.03
2022-08-09T03:23:14.522Z,99579.78
2022-08-09T03:25:58.062Z,99573.75
2022-08-09T03:28:27.088Z,99571.66
2022-08-09T03:30:55.621Z,99582.41
2022-08-09T03:33:24.371Z,99576.28
2022-08-09T03:36:13.034Z,99572.06
2022-08-09T03:38:42.737Z,99564.53
2022-08-09T03:41:15.130Z,99562.56
2022-08-09T03:43:42.632Z,99568.44
2022-08-09T03:46:27.220Z,99557.69
2022-08-09T03:49:04.169Z,99559.50
2022-08-09T03:51:54.082Z,99557.53
2022-08-09T03:54:29.456Z,99560.88
2022-08-09T03:57:00.843Z,99564.53
2022-08-09T03:59:53.476Z,99557.41
2022-08-09T04:02:14.444Z,99561.19
2022-08-09T04:04:46.345Z,99554.72
2022-08-09T04:07:14.562Z,99538.97
2022-08-09T04:09:50.012Z,99528.78
2022-08-09T04:12:41.380Z,99528.75
2022-08-09T04:15:29.507Z,99524.28
2022-08-09T04:17:59.091Z,99528.63
2022-08-09T04:20:34.536Z,99537.13
2022-08-09T04:23:02.037Z,99534.34
2022-08-09T04:25:29.507Z,99535.75
2022-08-09T04:28:02.450Z,99525.97
2022-08-09T04:30:31.656Z,99543.16
2022-08-09T04:33:01.158Z,99549.72
2022-08-09T04:35:29.281Z,99548.59
2022-08-09T04:37:59.593Z,99551.81
2022-08-09T04:40:48.362Z,99569.88
2022-08-09T04:43:22.649Z,99566.38
2022-08-09T04:45:54.454Z,99568.44
2022-08-09T04:48:23.703Z,99569.16
2022-08-09T04:50:51.939Z,99574.19
2022-08-09T04:53:18.420Z,99576.13
2022-08-09T04:55:58.467Z,99579.06
2022-08-09T04:58:31.817Z,99588.72
2022-08-09T05:01:01.453Z,99592.78
2022-08-09T05:03:40.277Z,99603.25
2022-08-09T05:06:11.875Z,99621.00
2022-08-09T05:08:52.226Z,99629.94
2022-08-09T05:11:32.446Z,99640.16
2022-08-09T05:14:05.911Z,99652.59
2022-08-09T05:16:58.224Z,99642.56
2022-08-09T05:19:26.012Z,99641.41
2022-08-09T05:21:55.505Z,99662.97
2022-08-09T05:24:24.170Z,99665.31
2022-08-09T05:26:55.960Z,99681.06
2022-08-09T05:29:31.395Z,99690.28
2022-08-09T05:32:02.015Z,99715.00
2022-08-09T05:34:31.627Z,99705.59
2022-08-09T05:37:06.154Z,99735.81
2022-08-09T05:39:43.188Z,99750.94
2022-08-09T05:42:17.840Z,99754.00
2022-08-09T05:44:58.468Z,99768.84
2022-08-09T05:47:30.311Z,99778.28
2022-08-09T05:50:30.150Z,99776.31
2022-08-09T05:52:53.628Z,99792.69
2022-08-09T05:55:21.689Z,99807.78
2022-08-09T05:57:56.775Z,99810.19
2022-08-09T06:00:32.875Z,99830.59
2022-08-09T06:03:02.294Z,99838.19
2022-08-09T06:05:54.814Z,99862.06
2022-08-09T06:08:19.459Z,99890.72
2022-08-09T06:10:51.569Z,99904.41
2022-08-09T06:13:20.333Z,99913.75
2022-08-09T06:15:52.187Z,99926.84
2022-08-09T06:18:24.065Z,99933.41
2022-08-09T06:20:54.831Z,99941.72
2022-08-09T06:23:58.267Z,99949.75
2022-08-09T06:26:21.340Z,99951.63
2022-08-09T06:28:59.394Z,99961.78
2022-08-09T06:31:31.501Z,99959.06
2022-08-09T06:34:07.424Z,99961.19
2022-08-09T06:36:33.974Z,99971.50
2022-08-09T06:39:02.659Z,99987.69
2022-08-09T06:42:07.884Z,99994.66
2022-08-09T06:44:23.744Z,99992.66
2022-08-09T06:46:55.282Z,99998.69
2022-08-09T06:49:44.953Z,99995.50
2022-08-09T06:52:09.769Z,100000.50
2022-08-09T06:54:39.251Z,99995.38
2022-08-09T06:57:08.432Z,99997.22
2022-08-09T07:00:51.343Z,100006.28
2022-08-09T07:02:22.330Z,100005.28
2022-08-09T07:04:57.501Z,100011.75
2022-08-09T07:07:58.435Z,100009.84
2022-08-09T07:10:29.656Z,100011.06
2022-08-09T07:13:00.092Z,100009.25
2022-08-09T07:16:34.792Z,100009.00
2022-08-09T07:18:31.436Z,100012.19
2022-08-09T07:20:58.439Z,100015.34
2022-08-09T07:23:24.884Z,100018.56
2022-08-09T07:26:02.601Z,100015.28
2022-08-09T07:28:30.821Z,100022.94
2022-08-09T07:31:02.260Z,100024.06
2022-08-09T07:33:52.683Z,100028.22
2022-08-09T07:36:17.818Z,100013.13
2022-08-09T07:38:56.810Z,100024.25
2022-08-09T07:41:27.240Z,100021.97
2022-08-09T07:43:59.873Z,100021.44
2022-08-09T07:46:28.088Z,100020.72
2022-08-09T07:48:59.361Z,100022.63
2022-08-09T07:52:05.120Z,100019.84
2022-08-09T07:54:14.602Z,100026.78
2022-08-09T07:56:45.193Z,100017.63
2022-08-09T07:59:34.772Z,100023.63
2022-08-09T08:02:08.912Z,100016.88
2022-08-09T08:04:36.512Z,100028.38
2022-08-09T08:07:15.172Z,100014.06
2022-08-09T08:10:07.502Z,100014.28
2022-08-09T08:12:35.380Z,100021.03
2022-08-09T08:15:05.017Z,100018.28
2022-08-09T08:17:52.590Z,100013.97
2022-08-09T08:20:19.620Z,100020.97
2022-08-09T08:23:01.279Z,100011.97
2022-08-09T08:25:44.668Z,100012.84
2022-08-09T08:28:14.967Z,100008.69
2022-08-09T08:30:45.661Z,100001.44
2022-08-09T08:33:23.852Z,100004.69
2022-08-09T08:35:58.526Z,100008.13
2022-08-09T08:38:28.508Z,100006.59
2022-08-09T08:40:56.688Z,100011.50
2022-08-09T08:43:24.359Z,100006.19
2022-08-09T08:46:09.934Z,100013.84
2022-08-09T08:48:52.054Z,100015.59
2022-08-09T08:51:22.579Z,100008.41
2022-08-09T08:54:03.926Z,100007.66
2022-08-09T08:56:37.588Z,100000.81
2022-08-09T08:59:20.036Z,100005.66
2022-08-09T09:01:52.942Z,100003.47
2022-08-09T09:04:41.327Z,100009.28
2022-08-09T09:07:15.825Z,100005.59
2022-08-09T09:10:02.302Z,100016.03
2022-08-09T09:12:34.222Z,100007.03
2022-08-09T09:15:05.773Z,100004.59
2022-08-09T09:17:48.532Z,100001.44
2022-08-09T09:20:18.997Z,100006.09
2022-08-09T09:22:56.658Z,99984.28
2022-08-09T09:26:04.849Z,100005.72
2022-08-09T09:28:39.092Z,99990.09
2022-08-09T09:32:06.615Z,99998.22
2022-08-09T09:34:14.447Z,100011.13
2022-08-09T09:36:50.977Z,99995.59
2022-08-09T09:39:54.851Z,99999.84
2022-08-09T09:42:26.649Z,99998.66
2022-08-09T09:44:59.026Z,99992.78
2022-08-09T09:47:26.468Z,100006.94
2022-08-09T09:50:14.458Z,99991.66
2022-08-09T09:52:56.885Z,99983.66
2022-08-09T09:55:32.083Z,99983.06
2022-08-09T09:58:19.296Z,99996.41
2022-08-09T10:00:54.059Z,99971.97
2022-08-09T10:03:40.043Z,99969.41
2022-08-09T10:06:07.071Z,99966.53
2022-08-09T10:08:42.682Z,99964.81
2022-08-09T10:11:59.892Z,99966.44
2022-08-09T10:14:32.992Z,99966.72
2022-08-09T10:17:40.683Z,99968.47
2022-08-09T10:19:57.205Z,99965.25
2022-08-09T10:22:35.356Z,99957.41
2022-08-09T10:25:11.275Z,99957.94
2022-08-09T10:27:45.344Z,99959.31
2022-08-09T10:34:04.618Z,99961.78
2022-08-09T10:36:11.698Z,99953.97
2022-08-09T10:38:56.605Z,99961.03
2022-08-09T10:41:26.209Z,99963.53
2022-08-09T10:44:01.565Z,99951.78
2022-08-09T10:46:57.313Z,99955.69
2022-08-09T10:49:50.150Z,99959.75
2022-08-09T10:52:42.901Z,99958.13
2022-08-09T10:55:21.314Z,99954.59
2022-08-09T10:57:51.872Z,99926.00
2022-08-09T11:00:50.892Z,99956.78
2022-08-09T11:03:47.137Z,99956.16
2022-08-09T11:06:16.862Z,99957.84
2022-08-09T11:08:47.347Z,99942.22
2022-08-09T11:11:16.158Z,99934.94
2022-08-09T11:13:54.250Z,99944.59
2022-08-09T11:16:35.518Z,99946.63
2022-08-09T11:19:07.895Z,99952.31
2022-08-09T11:21:56.962Z,99945.78
2022-08-09T11:24:57.071Z,99943.00
2022-08-09T11:28:04.835Z,99950.63
2022-08-09T11:30:37.622Z,99945.72
2022-08-09T11:33:13.847Z,99943.06
2022-08-09T11:35:49.159Z,99948.56
2022-08-09T11:38:19.815Z,99931.09
2022-08-09T11:40:54.689Z,99938.09
2022-08-09T11:43:32.404Z,99944.06
2022-08-09T11:46:01.471Z,99948.34
2022-08-09T11:48:33.557Z,99940.03
2022-08-09T11:52:49.440Z,99949.09
2022-08-09T11:54:13.438Z,99931.94
2022-08-09T11:56:42.619Z,99937.25
2022-08-09T11:59:33.013Z,99934.84
2022-08-09T12:02:34.335Z,99935.13
2022-08-09T12:04:47.193Z,99931.44
2022-08-09T12:07:14.851Z,99937.97
2022-08-09T12:09:50.502Z,99924.94
2022-08-09T12:12:20.412Z,99936.31
2022-08-09T12:15:07.622Z,99940.88
2022-08-09T12:17:42.110Z,99938.75
2022-08-09T12:20:21.387Z,99931.53
2022-08-09T12:23:00.470Z,99923.53
2022-08-09T12:25:31.896Z,99912.00
2022-08-09T12:29:13.892Z,99917.94
2022-08-09T12:31:58.070Z,99923.78
2022-08-09T12:34:11.108Z,99917.38
2022-08-09T12:36:58.830Z,99910.84
2022-08-09T12:39:37.749Z,99907.50
2022-08-09T12:42:10.313Z,99911.69
2022-08-09T12:44:52.065Z,99906.38
2022-08-09T12:47:23.027Z,99913.25
2022-08-09T12:50:08.908Z,99919.25
2022-08-09T12:52:52.561Z,99923.72
2022-08-09T12:56:15.617Z,99900.09
2022-08-09T12:58:27.463Z,99893.25
2022-08-09T13:00:55.404Z,99909.63
2022-08-09T13:03:56.743Z,99909.47
2022-08-09T13:06:38.891Z,99888.69
2022-08-09T13:09:07.644Z,99879.03
2022-08-09T13:11:39.646Z,99892.94
2022-08-09T13:14:42.916Z,99907.03
2022-08-09T13:17:08.527Z,99906.38
2022-08-09T13:20:09.305Z,99902.13
2022-08-09T13:22:36.525Z,99902.81
2022-08-09T13:25:07.455Z,99897.53
2022-08-09T13:27:48.415Z,99883.56
2022-08-09T13:30:51.016Z,99889.38
2022-08-09T13:33:17.125Z,99887.75
2022-08-09T13:36:37.954Z,99896.28
2022-08-09T13:38:57.869Z,99879.00
2022-08-09T13:41:55.624Z,99883.31
2022-08-09T13:44:13.675Z,99899.19
2022-08-09T13:47:30.807Z,99889.28
2022-08-09T13:49:37.618Z,99897.47
2022-08-09T13:52:09.219Z,99891.88
2022-08-09T13:54:41.789Z,99884.41
2022-08-09T13:57:36.353Z,99889.59
2022-08-09T14:00:04.843Z,99880.72
2022-08-09T14:02:32.622Z,99881.50
2022-08-09T14:05:03.107Z,99881.44
2022-08-09T14:07:40.981Z,99886.47
2022-08-09T14:10:17.513Z,99876.44
2022-08-09T14:12:56.847Z,99886.59
2022-08-09T14:16:10.466Z,99879.75
2022-08-09T14:18:18.779Z,99883.63
2022-08-09T14:20:45.907Z,99874.56
2022-08-09T14:23:20.310Z,99870.91
2022-08-09T14:26:02.372Z,99873.31
2022-08-09T14:28:33.216Z,99874.25
2022-08-09T14:30:59.672Z,99867.75
2022-08-09T14:33:26.120Z,99874.59
2022-08-09T14:35:53.483Z,99879.00
2022-08-09T14:38:20.115Z,99873.31
2022-08-09T14:41:04.304Z,99862.13
2022-08-09T14:43:47.735Z,99869.94
2022-08-09T14:46:54.753Z,99878.00
2022-08-09T14:49:10.471Z,99865.66
2022-08-09T14:51:42.428Z,99870.53
2022-08-09T14:54:09.541Z,99862.72
2022-08-09T14:56:36.449Z,99866.81
2022-08-09T14:59:23.900Z,99866.25
2022-08-09T15:01:50.524Z,99866.63
2022-08-09T15:04:17.803Z,99870.59
2022-08-09T15:06:49.706Z,99856.03
2022-08-09T15:09:16.807Z,99856.91
2022-08-09T15:12:04.469Z,99862.81
2022-08-09T15:14:33.691Z,99845.16
2022-08-09T15:17:04.990Z,99843.06
2022-08-09T15:19:36.032Z,99858.78
2022-08-09T15:22:03.857Z,99864.31
2022-08-09T15:24:32.550Z,99857.22
2022-08-09T15:26:59.788Z,99854.78
2022-08-09T15:30:48.860Z,99849.81
2022-08-09T15:32:29.134Z,99848.75
2022-08-09T15:34:59.926Z,99855.34
2022-08-09T15:37:57.134Z,99856.97
2022-08-09T15:40:25.334Z,99849.94
2022-08-09T15:42:59.196Z,99848.63
2022-08-09T15:45:29.372Z,99861.00
2022-08-09T15:48:05.348Z,99848.72
2022-08-09T15:50:39.289Z,99854.31
2022-08-09T15:54:02.159Z,99841.38
2022-08-09T15:56:24.069Z,99847.84
2022-08-09T15:58:44.817Z,99844.53
2022-08-09T16:01:13.582Z,99857.09
2022-08-09T16:03:41.630Z,99847.41
2022-08-09T16:06:27.289Z,99843.47
2022-08-09T16:08:56.135Z,99841.88
2022-08-09T16:11:23.422Z,99835.97
2022-08-09T16:14:04.708Z,99836.34
2022-08-09T16:16:37.147Z,99836.97
2022-08-09T16:19:06.132Z,99843.72
2022-08-09T16:21:35.183Z,99841.81
2022-08-09T16:24:03.051Z,99838.00
2022-08-09T16:26:33.601Z,99837.25
2022-08-09T16:29:01.250Z,99833.06
2022-08-09T16:32:10.634Z,99842.56
2022-08-09T16:34:24.703Z,99840.19
2022-08-09T16:36:51.262Z,99839.59
2022-08-09T16:39:17.907Z,99836.00
2022-08-09T16:42:03.966Z,99837.41
2022-08-09T16:44:31.835Z,99840.34
2022-08-09T16:47:03.976Z,99842.09
2022-08-09T16:50:29.716Z,99845.25
2022-08-09T16:52:32.159Z,99836.66
2022-08-09T16:54:58.809Z,99833.78
2022-08-09T16:57:25.251Z,99841.78
2022-08-09T16:59:57.854Z,99838.63
2022-08-09T17:02:33.865Z,99835.16
2022-08-09T17:05:00.673Z,99837.50
2022-08-09T17:08:42.704Z,99834.69
2022-08-09T17:10:15.673Z,99841.34
2022-08-09T17:12:45.568Z,99839.63
2022-08-09T17:15:18.228Z,99846.00
2022-08-09T17:18:01.150Z,99839.16
2022-08-09T17:20:35.177Z,99838.78
2022-08-09T17:23:04.816Z,99845.28
2022-08-09T17:25:32.245Z,99850.84
2022-08-09T17:28:05.995Z,99849.94
2022-08-09T17:30:33.910Z,99853.91
2022-08-09T17:33:22.405Z,99851.03
2022-08-09T17:35:50.272Z,99851.41
2022-08-09T17:38:32.612Z,99853.63
2022-08-09T17:41:02.970Z,99859.59
2022-08-09T17:43:35.735Z,99863.78
2022-08-09T17:46:09.161Z,99866.00
2022-08-09T17:48:40.249Z,99858.13
2022-08-09T17:51:18.603Z,99870.88
2022-08-09T17:53:51.982Z,99872.81
2022-08-09T17:56:35.400Z,99880.91
2022-08-09T17:59:09.177Z,99875.56
2022-08-09T18:01:40.783Z,99872.47
2022-08-09T18:04:25.514Z,99877.13
2022-08-09T18:06:54.776Z,99874.84
2022-08-09T18:09:40.957Z,99881.75
2022-08-09T18:12:19.407Z,99882.00
2022-08-09T18:14:53.565Z,99886.25
2022-08-09T18:17:27.046Z,99885.44
2022-08-09T18:21:00.195Z,99876.69
2022-08-09T18:22:56.622Z,99896.50
2022-08-09T18:25:51.093Z,99898.59
2022-08-09T18:28:21.698Z,99899.69
2022-08-09T18:30:57.975Z,99899.88
2022-08-09T18:33:25.723Z,99902.81
2022-08-09T18:35:59.333Z,99888.69
2022-08-09T18:38:27.620Z,99894.94
2022-08-09T18:40:55.305Z,99893.94
2022-08-09T18:43:23.650Z,99894.97
2022-08-09T18:46:51.019Z,99898.91
2022-08-09T18:48:38.329Z,99912.00
2022-08-09T18:51:08.887Z,99906.81
2022-08-09T18:53:56.966Z,99909.94
2022-08-09T18:56:28.066Z,99911.16
2022-08-09T18:58:56.252Z,99899.75
2022-08-09T19:01:23.616Z,99914.91
2022-08-09T19:04:01.781Z,99926.56
2022-08-09T19:06:36.336Z,99928.16
2022-08-09T19:09:06.369Z,99938.97
2022-08-09T19:11:38.101Z,99933.34
2022-08-09T19:14:06.358Z,99938.13
2022-08-09T19:16:36.291Z,99943.09
2022-08-09T19:19:25.299Z,99941.34
2022-08-09T19:22:06.772Z,99944.88
2022-08-09T19:24:39.324Z,99935.53
2022-08-09T19:27:21.600Z,99941.13
2022-08-09T19:30:22.987Z,99941.13
2022-08-09T19:32:35.576Z,99935.03
2022-08-09T19:35:04.326Z,99942.47
2022-08-09T19:37:41.180Z,99927.34
2022-08-09T19:40:19.470Z,99942.22
2022-08-09T19:42:47.419Z,99944.44
2022-08-09T19:45:16.204Z,99944.59
2022-08-09T19:47:44.354Z,99949.50
2022-08-09T19:50:50.144Z,99947.06
2022-08-09T19:52:59.504Z,99950.84
2022-08-09T19:55:39.150Z,99955.69
2022-08-09T19:58:16.041Z,99959.34
2022-08-09T20:00:45.460Z,99953.41
2022-08-09T20:04:09.977Z,99959.66
2022-08-09T20:05:59.617Z,99957.63
2022-08-09T20:08:34.929Z,99955.28
2022-08-09T20:11:03.979Z,99947.81
2022-08-09T20:13:32.261Z,99948.19
2022-08-09T20:16:37.555Z,99947.19
2022-08-09T20:19:42.420Z,99945.78
2022-08-09T20:21:57.002Z,99948.91
2022-08-09T20:24:31.893Z,99948.16
2022-08-09T20:27:01.567Z,99955.72
2022-08-09T20:29:32.691Z,99959.97
2022-08-09T20:32:33.342Z,99952.03
2022-08-09T20:34:51.744Z,99946.41
2022-08-09T20:37:21.611Z,99954.81
2022-08-09T20:40:15.812Z,99951.81
2022-08-09T20:42:35.872Z,99942.97
2022-08-09T20:46:00.492Z,99945.91
2022-08-09T20:47:51.618Z,99949.59
2022-08-09T20:50:47.602Z,99950.28
2022-08-09T20:53:04.606Z,99958.34
2022-08-09T20:55:47.267Z,99956.25
2022-08-09T20:58:28.514Z,99946.72
2022-08-09T21:01:14.271Z,99955.94
2022-08-09T21:04:08.393Z,99946.44
2022-08-09T21:06:33.616Z,99948.75
2022-08-09T21:09:01.546Z,99939.06
2022-08-09T21:14:15.416Z,99942.75
2022-08-09T21:16:43.774Z,99936.41
2022-08-09T21:20:18.201Z,99943.44
2022-08-09T21:21:59.647Z,99938.22
2022-08-09T21:24:29.000Z,99928.34
2022-08-09T21:26:59.050Z,99926.66
2022-08-09T21:29:25.454Z,99929.50
2022-08-09T21:31:51.882Z,99933.00
2022-08-09T21:34:28.834Z,99930.97
2022-08-09T21:36:56.623Z,99933.31
2022-08-09T21:39:41.520Z,99930.66
2022-08-09T21:42:10.475Z,99936.84
2022-08-09T21:44:38.010Z,99935.84
2022-08-09T21:47:07.911Z,99933.16
2022-08-09T21:49:39.700Z,99925.56
2022-08-09T21:52:14.861Z,99929.59
2022-08-09T21:54:50.898Z,99927.06
2022-08-09T21:57:39.616Z,99923.16
2022-08-09T22:00:25.541Z,99928.16
2022-08-09T22:02:58.202Z,99928.50
2022-08-09T22:05:36.074Z,99927.28
2022-08-09T22:08:05.263Z,99924.44
2022-08-09T22:10:31.804Z,99930.47
2022-08-09T22:12:59.752Z,99930.78
2022-08-09T22:15:35.308Z,99925.75
2022-08-09T22:18:03.771Z,99922.50
2022-08-09T22:20:31.097Z,99929.38
2022-08-09T22:22:58.414Z,99922.81
2022-08-09T22:26:08.371Z,99918.75
2022-08-09T22:28:11.704Z,99919.91
2022-08-09T22:30:39.151Z,99917.56
2022-08-09T22:33:17.413Z,99913.19
2022-08-09T22:36:00.996Z,99907.31
2022-08-09T22:38:30.071Z,99906.41
2022-08-09T22:40:58.465Z,99908.78
2022-08-09T22:44:02.606Z,99901.72
2022-08-09T22:48:13.479Z,99905.38
2022-08-09T22:49:01.716Z,99907.94
2022-08-09T22:51:28.430Z,99897.66
2022-08-09T22:54:02.765Z,99903.16
2022-08-09T22:56:34.075Z,99894.78
2022-08-09T22:59:05.789Z,99892.13
2022-08-09T23:01:51.707Z,99884.41
2022-08-09T23:04:18.245Z,99883.38
2022-08-09T23:07:03.712Z,99888.41
2022-08-09T23:09:38.309Z,99893.44
2022-08-09T23:12:04.863Z,99888.53
2022-08-09T23:14:41.645Z,99890.00
2022-08-09T23:17:09.191Z,99887.19
2022-08-09T23:20:06.522Z,99885.31
2022-08-09T23:22:22.245Z,99891.31
2022-08-09T23:24:49.212Z,99889.25
2022-08-09T23:27:15.856Z,99892.69
2022-08-09T23:29:42.484Z,99886.81
2022-08-09T23:32:09.083Z,99894.38
2022-08-09T23:34:35.519Z,99874.19
2022-08-09T23:37:02.376Z,99879.28
2022-08-09T23:39:28.858Z,99876.00
2022-08-09T23:41:55.584Z,99872.41
2022-08-09T23:44:22.153Z,99865.31
2022-08-09T23:46:52.862Z,99849.56
2022-08-09T23:49:24.986Z,99851.28
2022-08-09T23:51:52.172Z,99860.91
2022-08-09T23:54:18.870Z,99856.56
2022-08-09T23:56:54.336Z,99848.03
2022-08-09T23:59:24.179Z,99840.09
